sensor_id;sensor_type;location;lat;lon;timestamp;pressure;altitude;pressure_sealevel;temperature
6498;BMP280;3282;48.358;10.958;2022-10-31T00:00:29;96688.13;;;12.20
6498;BMP280;3282;48.358;10.958;2022-10-31T00:02:55;96683.31;;;12.10
6498;BMP280;3282;48.358;10.958;2022-10-31T00:05:22;96677.56;;;12.08
6498;BMP280;3282;48.358;10.958;2022-10-31T00:07:52;96701.22;;;12.26
6498;BMP280;3282;48.358;10.958;2022-10-31T00:10:18;96688.13;;;12.20
6498;BMP280;3282;48.358;10.958;2022-10-31T00:12:45;96691.47;;;12.17
6498;BMP280;3282;48.358;10.958;2022-10-31T00:15:12;96702.28;;;12.21
6498;BMP280;3282;48.358;10.958;2022-10-31T00:17:38;96698.84;;;12.20
6498;BMP280;3282;48.358;10.958;2022-10-31T00:20:05;96683.75;;;12.12
6498;BMP280;3282;48.358;10.958;2022-10-31T00:22:32;96655.44;;;11.91
6498;BMP280;3282;48.358;10.958;2022-10-31T00:24:58;96691.47;;;12.17
6498;BMP280;3282;48.358;10.958;2022-10-31T00:27:25;96689.03;;;12.08
6498;BMP280;3282;48.358;10.958;2022-10-31T00:29:53;96697.94;;;12.13
6498;BMP280;3282;48.358;10.958;2022-10-31T00:32:20;96693.72;;;12.12
6498;BMP280;3282;48.358;10.958;2022-10-31T00:34:47;96694.00;;;12.06
6498;BMP280;3282;48.358;10.958;2022-10-31T00:37:13;96694.34;;;12.05
6498;BMP280;3282;48.358;10.958;2022-10-31T00:39:42;96693.50;;;12.01
6498;BMP280;3282;48.358;10.958;2022-10-31T00:42:11;96688.72;;;11.90
6498;BMP280;3282;48.358;10.958;2022-10-31T00:44:41;96694.88;;;11.91
6498;BMP280;3282;48.358;10.958;2022-10-31T00:47:07;96693.03;;;11.95
6498;BMP280;3282;48.358;10.958;2022-10-31T00:49:34;96693.78;;;11.95
6498;BMP280;3282;48.358;10.958;2022-10-31T00:52:00;96695.28;;;11.93
6498;BMP280;3282;48.358;10.958;2022-10-31T00:54:27;96706.38;;;11.91
6498;BMP280;3282;48.358;10.958;2022-10-31T00:56:53;96703.69;;;11.91
6498;BMP280;3282;48.358;10.958;2022-10-31T00:59:20;96692.75;;;11.80
6498;BMP280;3282;48.358;10.958;2022-10-31T01:01:47;96702.84;;;11.87
6498;BMP280;3282;48.358;10.958;2022-10-31T01:04:14;96701.66;;;11.84
6498;BMP280;3282;48.358;10.958;2022-10-31T01:06:41;96684.25;;;11.75
6498;BMP280;3282;48.358;10.958;2022-10-31T01:09:07;96693.81;;;11.76
6498;BMP280;3282;48.358;10.958;2022-10-31T01:11:34;96708.06;;;11.80
6498;BMP280;3282;48.358;10.958;2022-10-31T01:14:05;96705.94;;;11.69
6498;BMP280;3282;48.358;10.958;2022-10-31T01:16:31;96705.94;;;11.69
6498;BMP280;3282;48.358;10.958;2022-10-31T01:18:58;96703.88;;;11.63
6498;BMP280;3282;48.358;10.958;2022-10-31T01:21:27;96697.63;;;11.55
6498;BMP280;3282;48.358;10.958;2022-10-31T01:23:58;96698.81;;;11.57
6498;BMP280;3282;48.358;10.958;2022-10-31T01:26:27;96715.78;;;11.62
6498;BMP280;3282;48.358;10.958;2022-10-31T01:28:56;96719.22;;;11.62
6498;BMP280;3282;48.358;10.958;2022-10-31T01:31:25;96714.59;;;11.63
6498;BMP280;3282;48.358;10.958;2022-10-31T01:33:52;96708.50;;;11.62
6498;BMP280;3282;48.358;10.958;2022-10-31T01:36:24;96713.09;;;11.62
6498;BMP280;3282;48.358;10.958;2022-10-31T01:38:53;96690.34;;;11.55
6498;BMP280;3282;48.358;10.958;2022-10-31T01:41:22;96694.16;;;11.54
6498;BMP280;3282;48.358;10.958;2022-10-31T01:43:50;96698.34;;;11.52
6498;BMP280;3282;48.358;10.958;2022-10-31T01:46:22;96702.94;;;11.51
6498;BMP280;3282;48.358;10.958;2022-10-31T01:48:52;96690.56;;;11.46
6498;BMP280;3282;48.358;10.958;2022-10-31T01:51:21;96697.56;;;11.51
6498;BMP280;3282;48.358;10.958;2022-10-31T01:53:50;96697.91;;;11.50
6498;BMP280;3282;48.358;10.958;2022-10-31T01:56:18;96690.06;;;11.41
6498;BMP280;3282;48.358;10.958;2022-10-31T01:58:45;96702.16;;;11.51
6498;BMP280;3282;48.358;10.958;2022-10-31T02:01:16;96711.28;;;11.50
6498;BMP280;3282;48.358;10.958;2022-10-31T02:03:44;96699.19;;;11.36
6498;BMP280;3282;48.358;10.958;2022-10-31T02:06:43;96704.94;;;11.38
6498;BMP280;3282;48.358;10.958;2022-10-31T02:09:10;96705.66;;;11.35
6498;BMP280;3282;48.358;10.958;2022-10-31T02:11:38;96707.56;;;11.35
6498;BMP280;3282;48.358;10.958;2022-10-31T02:14:09;96694.69;;;11.24
6498;BMP280;3282;48.358;10.958;2022-10-31T02:16:36;96696.25;;;11.25
6498;BMP280;3282;48.358;10.958;2022-10-31T02:19:04;96699.72;;;11.26
6498;BMP280;3282;48.358;10.958;2022-10-31T02:21:44;96690.75;;;11.18
6498;BMP280;3282;48.358;10.958;2022-10-31T02:24:21;96700.00;;;11.20
6498;BMP280;3282;48.358;10.958;2022-10-31T02:32:30;96705.97;;;11.14
6498;BMP280;3282;48.358;10.958;2022-10-31T02:35:08;96698.19;;;11.08
6498;BMP280;3282;48.358;10.958;2022-10-31T02:40:33;96690.34;;;11.00
6498;BMP280;3282;48.358;10.958;2022-10-31T02:43:34;96687.97;;;10.94
6498;BMP280;3282;48.358;10.958;2022-10-31T02:46:17;96696.59;;;11.04
6498;BMP280;3282;48.358;10.958;2022-10-31T02:48:46;96700.81;;;11.05
6498;BMP280;3282;48.358;10.958;2022-10-31T02:51:15;96696.16;;;11.02
6498;BMP280;3282;48.358;10.958;2022-10-31T02:53:42;96688.72;;;10.95
6498;BMP280;3282;48.358;10.958;2022-10-31T02:56:16;96691.75;;;10.93
6498;BMP280;3282;48.358;10.958;2022-10-31T02:58:50;96697.09;;;10.93
6498;BMP280;3282;48.358;10.958;2022-10-31T03:01:32;96688.31;;;10.93
6498;BMP280;3282;48.358;10.958;2022-10-31T03:09:41;96695.56;;;10.92
6498;BMP280;3282;48.358;10.958;2022-10-31T03:12:19;96654.66;;;10.60
6498;BMP280;3282;48.358;10.958;2022-10-31T03:17:36;96680.19;;;10.73
6498;BMP280;3282;48.358;10.958;2022-10-31T03:20:06;96701.75;;;10.80
6498;BMP280;3282;48.358;10.958;2022-10-31T03:22:35;96696.00;;;10.78
6498;BMP280;3282;48.358;10.958;2022-10-31T03:25:04;96697.91;;;10.78
6498;BMP280;3282;48.358;10.958;2022-10-31T03:27:33;96696.00;;;10.78
6498;BMP280;3282;48.358;10.958;2022-10-31T03:30:04;96697.38;;;10.72
6498;BMP280;3282;48.358;10.958;2022-10-31T03:32:44;96699.69;;;10.74
6498;BMP280;3282;48.358;10.958;2022-10-31T03:35:15;96699.69;;;10.74
6498;BMP280;3282;48.358;10.958;2022-10-31T03:37:45;96699.69;;;10.74
6498;BMP280;3282;48.358;10.958;2022-10-31T03:40:15;96700.50;;;10.74
6498;BMP280;3282;48.358;10.958;2022-10-31T03:42:46;96703.50;;;10.73
6498;BMP280;3282;48.358;10.958;2022-10-31T03:45:21;96697.91;;;10.62
6498;BMP280;3282;48.358;10.958;2022-10-31T03:47:50;96705.00;;;10.70
6498;BMP280;3282;48.358;10.958;2022-10-31T03:50:18;96702.66;;;10.68
6498;BMP280;3282;48.358;10.958;2022-10-31T03:52:57;96702.66;;;10.68
6498;BMP280;3282;48.358;10.958;2022-10-31T03:55:28;96701.09;;;10.67
6498;BMP280;3282;48.358;10.958;2022-10-31T03:58:23;96698.00;;;10.65
6498;BMP280;3282;48.358;10.958;2022-10-31T04:00:54;96688.75;;;10.63
6498;BMP280;3282;48.358;10.958;2022-10-31T04:03:25;96688.66;;;10.59
6498;BMP280;3282;48.358;10.958;2022-10-31T04:05:59;96679.03;;;10.54
6498;BMP280;3282;48.358;10.958;2022-10-31T04:08:32;96680.13;;;10.53
6498;BMP280;3282;48.358;10.958;2022-10-31T04:11:00;96689.00;;;10.57
6498;BMP280;3282;48.358;10.958;2022-10-31T04:13:31;96684.00;;;10.56
6498;BMP280;3282;48.358;10.958;2022-10-31T04:16:06;96648.97;;;10.29
6498;BMP280;3282;48.358;10.958;2022-10-31T04:18:39;96687.78;;;10.55
6498;BMP280;3282;48.358;10.958;2022-10-31T04:21:07;96676.09;;;10.43
6498;BMP280;3282;48.358;10.958;2022-10-31T04:23:35;96654.91;;;10.22
6498;BMP280;3282;48.358;10.958;2022-10-31T04:26:22;96692.13;;;10.43
6498;BMP280;3282;48.358;10.958;2022-10-31T04:28:50;96677.63;;;10.28
6498;BMP280;3282;48.358;10.958;2022-10-31T04:31:16;96682.38;;;10.35
6498;BMP280;3282;48.358;10.958;2022-10-31T04:33:46;96693.06;;;10.35
6498;BMP280;3282;48.358;10.958;2022-10-31T04:36:13;96690.72;;;10.34
6498;BMP280;3282;48.358;10.958;2022-10-31T04:38:41;96694.84;;;10.31
6498;BMP280;3282;48.358;10.958;2022-10-31T04:41:27;96693.31;;;10.30
6498;BMP280;3282;48.358;10.958;2022-10-31T04:44:00;96690.63;;;10.30
6498;BMP280;3282;48.358;10.958;2022-10-31T04:46:26;96694.84;;;10.31
6498;BMP280;3282;48.358;10.958;2022-10-31T04:48:56;96688.84;;;10.34
6498;BMP280;3282;48.358;10.958;2022-10-31T04:51:23;96691.06;;;10.32
6498;BMP280;3282;48.358;10.958;2022-10-31T04:53:51;96689.84;;;10.29
6498;BMP280;3282;48.358;10.958;2022-10-31T04:56:38;96689.00;;;10.25
6498;BMP280;3282;48.358;10.958;2022-10-31T04:59:11;96686.97;;;10.22
6498;BMP280;3282;48.358;10.958;2022-10-31T05:01:46;96677.75;;;10.19
6498;BMP280;3282;48.358;10.958;2022-10-31T05:04:13;96673.88;;;10.17
6498;BMP280;3282;48.358;10.958;2022-10-31T05:06:41;96676.91;;;10.15
6498;BMP280;3282;48.358;10.958;2022-10-31T05:09:07;96665.91;;;10.04
6498;BMP280;3282;48.358;10.958;2022-10-31T05:11:34;96677.59;;;10.12
6498;BMP280;3282;48.358;10.958;2022-10-31T05:14:16;96679.06;;;10.10
6498;BMP280;3282;48.358;10.958;2022-10-31T05:17:14;96675.59;;;10.09
6498;BMP280;3282;48.358;10.958;2022-10-31T05:20:04;96645.72;;;9.91
6498;BMP280;3282;48.358;10.958;2022-10-31T05:22:51;96673.34;;;10.11
6498;BMP280;3282;48.358;10.958;2022-10-31T05:25:20;96670.66;;;10.11
6498;BMP280;3282;48.358;10.958;2022-10-31T05:27:50;96663.34;;;10.08
6498;BMP280;3282;48.358;10.958;2022-10-31T05:30:20;96671.03;;;10.10
6498;BMP280;3282;48.358;10.958;2022-10-31T05:32:48;96669.81;;;10.07
6498;BMP280;3282;48.358;10.958;2022-10-31T05:35:35;96662.56;;;10.07
6498;BMP280;3282;48.358;10.958;2022-10-31T05:38:21;96661.38;;;10.05
6498;BMP280;3282;48.358;10.958;2022-10-31T05:40:48;96654.38;;;10.00
6498;BMP280;3282;48.358;10.958;2022-10-31T05:43:14;96664.38;;;10.03
6498;BMP280;3282;48.358;10.958;2022-10-31T05:45:41;96660.13;;;10.02
6498;BMP280;3282;48.358;10.958;2022-10-31T05:48:21;96657.13;;;10.04
6498;BMP280;3282;48.358;10.958;2022-10-31T05:51:06;96662.03;;;10.02
6498;BMP280;3282;48.358;10.958;2022-10-31T05:53:33;96666.19;;;9.99
6498;BMP280;3282;48.358;10.958;2022-10-31T05:56:00;96662.03;;;10.02
6498;BMP280;3282;48.358;10.958;2022-10-31T05:58:27;96656.94;;;9.97
6498;BMP280;3282;48.358;10.958;2022-10-31T06:01:02;96662.03;;;10.02
6498;BMP280;3282;48.358;10.958;2022-10-31T06:03:29;96661.28;;;10.01
6498;BMP280;3282;48.358;10.958;2022-10-31T06:05:56;96652.03;;;9.99
6498;BMP280;3282;48.358;10.958;2022-10-31T06:08:28;96663.50;;;9.99
6498;BMP280;3282;48.358;10.958;2022-10-31T06:10:58;96667.41;;;10.02
6498;BMP280;3282;48.358;10.958;2022-10-31T06:13:44;96651.13;;;9.94
6498;BMP280;3282;48.358;10.958;2022-10-31T06:16:22;96666.72;;;10.05
6498;BMP280;3282;48.358;10.958;2022-10-31T06:18:49;96658.16;;;9.99
6498;BMP280;3282;48.358;10.958;2022-10-31T06:21:17;96667.16;;;10.07
6498;BMP280;3282;48.358;10.958;2022-10-31T06:23:47;96666.38;;;10.06
6498;BMP280;3282;48.358;10.958;2022-10-31T06:26:43;96671.59;;;10.03
6498;BMP280;3282;48.358;10.958;2022-10-31T06:29:09;96650.72;;;9.92
6498;BMP280;3282;48.358;10.958;2022-10-31T06:32:05;96653.81;;;9.94
6498;BMP280;3282;48.358;10.958;2022-10-31T06:34:38;96657.81;;;10.01
6498;BMP280;3282;48.358;10.958;2022-10-31T06:37:07;96661.81;;;10.07
6498;BMP280;3282;48.358;10.958;2022-10-31T06:39:34;96669.16;;;10.10
6498;BMP280;3282;48.358;10.958;2022-10-31T06:42:02;96666.81;;;10.09
6498;BMP280;3282;48.358;10.958;2022-10-31T06:44:30;96664.59;;;10.11
6498;BMP280;3282;48.358;10.958;2022-10-31T06:46:56;96666.53;;;10.14
6498;BMP280;3282;48.358;10.958;2022-10-31T06:49:32;96654.22;;;10.09
6498;BMP280;3282;48.358;10.958;2022-10-31T06:52:01;96663.38;;;10.24
6498;BMP280;3282;48.358;10.958;2022-10-31T06:54:28;96664.16;;;10.25
6498;BMP280;3282;48.358;10.958;2022-10-31T06:56:55;96668.09;;;10.31
6498;BMP280;3282;48.358;10.958;2022-10-31T06:59:22;96660.88;;;10.31
6498;BMP280;3282;48.358;10.958;2022-10-31T07:02:09;96668.38;;;10.42
6498;BMP280;3282;48.358;10.958;2022-10-31T07:04:38;96666.47;;;10.42
6498;BMP280;3282;48.358;10.958;2022-10-31T07:07:06;96662.25;;;10.41
6498;BMP280;3282;48.358;10.958;2022-10-31T07:09:34;96671.72;;;10.55
6498;BMP280;3282;48.358;10.958;2022-10-31T07:12:03;96655.94;;;10.50
6498;BMP280;3282;48.358;10.958;2022-10-31T07:14:31;96663.53;;;10.64
6498;BMP280;3282;48.358;10.958;2022-10-31T07:16:58;96667.44;;;10.66
6498;BMP280;3282;48.358;10.958;2022-10-31T07:19:31;96673.81;;;10.78
6498;BMP280;3282;48.358;10.958;2022-10-31T07:21:58;96672.09;;;10.86
6498;BMP280;3282;48.358;10.958;2022-10-31T07:24:27;96671.91;;;10.94
6498;BMP280;3282;48.358;10.958;2022-10-31T07:27:19;96680.53;;;11.04
6498;BMP280;3282;48.358;10.958;2022-10-31T07:29:47;96679.53;;;11.12
6498;BMP280;3282;48.358;10.958;2022-10-31T07:32:15;96678.56;;;11.20
6498;BMP280;3282;48.358;10.958;2022-10-31T07:34:49;96682.97;;;11.29
6498;BMP280;3282;48.358;10.958;2022-10-31T07:37:36;96684.22;;;11.35
6498;BMP280;3282;48.358;10.958;2022-10-31T07:40:03;96660.09;;;11.35
6498;BMP280;3282;48.358;10.958;2022-10-31T07:42:35;96679.56;;;11.52
6498;BMP280;3282;48.358;10.958;2022-10-31T07:45:03;96682.03;;;11.61
6498;BMP280;3282;48.358;10.958;2022-10-31T07:48:08;96667.25;;;11.67
6498;BMP280;3282;48.358;10.958;2022-10-31T07:50:54;96679.16;;;11.89
6498;BMP280;3282;48.358;10.958;2022-10-31T07:53:51;96670.53;;;12.00
6498;BMP280;3282;48.358;10.958;2022-10-31T07:56:27;96669.50;;;12.08
6498;BMP280;3282;48.358;10.958;2022-10-31T07:58:54;96669.69;;;12.19
6498;BMP280;3282;48.358;10.958;2022-10-31T08:01:20;96660.88;;;12.18
6498;BMP280;3282;48.358;10.958;2022-10-31T08:04:05;96664.84;;;12.28
6498;BMP280;3282;48.358;10.958;2022-10-31T08:06:50;96669.75;;;12.46
6498;BMP280;3282;48.358;10.958;2022-10-31T08:09:26;96667.91;;;12.54
6498;BMP280;3282;48.358;10.958;2022-10-31T08:11:55;96659.66;;;12.63
6498;BMP280;3282;48.358;10.958;2022-10-31T08:14:21;96650.50;;;12.67
6498;BMP280;3282;48.358;10.958;2022-10-31T08:16:52;96662.22;;;12.82
6498;BMP280;3282;48.358;10.958;2022-10-31T08:19:19;96653.09;;;12.87
6498;BMP280;3282;48.358;10.958;2022-10-31T08:21:46;96659.03;;;13.04
6498;BMP280;3282;48.358;10.958;2022-10-31T08:24:13;96657.75;;;13.21
6498;BMP280;3282;48.358;10.958;2022-10-31T08:26:41;96658.41;;;13.45
6498;BMP280;3282;48.358;10.958;2022-10-31T08:29:09;96655.59;;;13.68
6498;BMP280;3282;48.358;10.958;2022-10-31T08:31:37;96639.63;;;13.86
6498;BMP280;3282;48.358;10.958;2022-10-31T08:34:46;96650.69;;;14.23
6498;BMP280;3282;48.358;10.958;2022-10-31T08:37:36;96654.31;;;14.49
6498;BMP280;3282;48.358;10.958;2022-10-31T08:40:05;96625.56;;;14.64
6498;BMP280;3282;48.358;10.958;2022-10-31T08:42:34;96627.97;;;14.84
6498;BMP280;3282;48.358;10.958;2022-10-31T08:45:01;96638.13;;;15.16
6498;BMP280;3282;48.358;10.958;2022-10-31T08:47:30;96628.94;;;15.31
6498;BMP280;3282;48.358;10.958;2022-10-31T08:49:57;96633.59;;;15.49
6498;BMP280;3282;48.358;10.958;2022-10-31T08:52:24;96620.50;;;15.55
6498;BMP280;3282;48.358;10.958;2022-10-31T08:55:11;96629.41;;;15.77
6498;BMP280;3282;48.358;10.958;2022-10-31T08:57:57;96620.16;;;15.93
6498;BMP280;3282;48.358;10.958;2022-10-31T09:00:34;96624.41;;;16.23
6498;BMP280;3282;48.358;10.958;2022-10-31T09:03:19;96625.88;;;16.46
6498;BMP280;3282;48.358;10.958;2022-10-31T09:05:46;96625.09;;;16.64
6498;BMP280;3282;48.358;10.958;2022-10-31T09:08:14;96631.97;;;16.79
6498;BMP280;3282;48.358;10.958;2022-10-31T09:10:45;96617.25;;;16.98
6498;BMP280;3282;48.358;10.958;2022-10-31T09:13:19;96614.44;;;17.20
6498;BMP280;3282;48.358;10.958;2022-10-31T09:16:21;96612.78;;;17.37
6498;BMP280;3282;48.358;10.958;2022-10-31T09:18:48;96609.25;;;17.44
6498;BMP280;3282;48.358;10.958;2022-10-31T09:21:15;96613.78;;;17.62
6498;BMP280;3282;48.358;10.958;2022-10-31T09:23:42;96604.75;;;17.79
6498;BMP280;3282;48.358;10.958;2022-10-31T09:26:09;96613.22;;;17.82
6498;BMP280;3282;48.358;10.958;2022-10-31T09:28:37;96602.03;;;17.76
6498;BMP280;3282;48.358;10.958;2022-10-31T09:31:07;96597.50;;;17.65
6498;BMP280;3282;48.358;10.958;2022-10-31T09:33:53;96599.00;;;17.74
6498;BMP280;3282;48.358;10.958;2022-10-31T09:36:36;96601.31;;;17.72
6498;BMP280;3282;48.358;10.958;2022-10-31T09:39:05;96595.94;;;17.64
6498;BMP280;3282;48.358;10.958;2022-10-31T09:41:47;96593.84;;;17.87
6498;BMP280;3282;48.358;10.958;2022-10-31T09:44:44;96581.78;;;17.99
6498;BMP280;3282;48.358;10.958;2022-10-31T09:47:35;96560.88;;;17.96
6498;BMP280;3282;48.358;10.958;2022-10-31T09:50:38;96581.19;;;18.18
6498;BMP280;3282;48.358;10.958;2022-10-31T09:53:59;96585.66;;;17.94
6498;BMP280;3282;48.358;10.958;2022-10-31T09:56:28;96591.25;;;17.72
6498;BMP280;3282;48.358;10.958;2022-10-31T09:58:59;96586.00;;;17.50
6498;BMP280;3282;48.358;10.958;2022-10-31T10:01:32;96584.00;;;17.62
6498;BMP280;3282;48.358;10.958;2022-10-31T10:07:12;96578.25;;;17.56
6498;BMP280;3282;48.358;10.958;2022-10-31T10:09:44;96569.25;;;17.66
6498;BMP280;3282;48.358;10.958;2022-10-31T10:13:01;96579.69;;;17.64
6498;BMP280;3282;48.358;10.958;2022-10-31T10:24:12;96572.44;;;17.01
6498;BMP280;3282;48.358;10.958;2022-10-31T10:26:48;96569.72;;;17.01
6498;BMP280;3282;48.358;10.958;2022-10-31T10:29:32;96556.97;;;17.05
6498;BMP280;3282;48.358;10.958;2022-10-31T10:32:06;96558.44;;;17.17
6498;BMP280;3282;48.358;10.958;2022-10-31T10:34:48;96564.88;;;17.38
6498;BMP280;3282;48.358;10.958;2022-10-31T10:38:00;96560.19;;;17.42
6498;BMP280;3282;48.358;10.958;2022-10-31T10:40:15;96557.28;;;17.68
6498;BMP280;3282;48.358;10.958;2022-10-31T10:45:49;96564.84;;;17.87
6498;BMP280;3282;48.358;10.958;2022-10-31T10:51:22;96562.53;;;17.86
6498;BMP280;3282;48.358;10.958;2022-10-31T11:00:30;96543.59;;;17.40
6498;BMP280;3282;48.358;10.958;2022-10-31T11:02:58;96532.41;;;17.38
6498;BMP280;3282;48.358;10.958;2022-10-31T11:05:36;96531.16;;;17.46
6498;BMP280;3282;48.358;10.958;2022-10-31T11:08:04;96528.63;;;17.70
6498;BMP280;3282;48.358;10.958;2022-10-31T11:10:31;96524.34;;;17.76
6498;BMP280;3282;48.358;10.958;2022-10-31T11:13:03;96530.28;;;17.60
6498;BMP280;3282;48.358;10.958;2022-10-31T11:15:34;96523.44;;;17.48
6498;BMP280;3282;48.358;10.958;2022-10-31T11:18:01;96525.78;;;17.43
6498;BMP280;3282;48.358;10.958;2022-10-31T11:20:33;96531.00;;;17.64
6498;BMP280;3282;48.358;10.958;2022-10-31T11:23:21;96465.63;;;17.31
6498;BMP280;3282;48.358;10.958;2022-10-31T11:25:57;96519.84;;;17.62
6498;BMP280;3282;48.358;10.958;2022-10-31T11:28:25;96511.78;;;17.59
6498;BMP280;3282;48.358;10.958;2022-10-31T11:30:59;96515.75;;;17.43
6498;BMP280;3282;48.358;10.958;2022-10-31T11:33:34;96516.84;;;17.53
6498;BMP280;3282;48.358;10.958;2022-10-31T11:38:46;96519.16;;;17.51
6498;BMP280;3282;48.358;10.958;2022-10-31T11:41:16;96517.66;;;17.46
6498;BMP280;3282;48.358;10.958;2022-10-31T11:44:03;96522.25;;;17.53
6498;BMP280;3282;48.358;10.958;2022-10-31T11:46:49;96519.53;;;17.53
6498;BMP280;3282;48.358;10.958;2022-10-31T11:49:27;96520.66;;;17.59
6498;BMP280;3282;48.358;10.958;2022-10-31T11:51:58;96510.91;;;17.65
6498;BMP280;3282;48.358;10.958;2022-10-31T11:54:31;96504.19;;;17.81
6498;BMP280;3282;48.358;10.958;2022-10-31T11:56:58;96494.47;;;17.87
6498;BMP280;3282;48.358;10.958;2022-10-31T11:59:30;96501.31;;;17.96
6498;BMP280;3282;48.358;10.958;2022-10-31T12:01:59;96496.78;;;17.89
6498;BMP280;3282;48.358;10.958;2022-10-31T12:04:34;96494.31;;;18.02
6498;BMP280;3282;48.358;10.958;2022-10-31T12:07:03;96484.44;;;18.19
6498;BMP280;3282;48.358;10.958;2022-10-31T12:09:33;96478.56;;;18.28
6498;BMP280;3282;48.358;10.958;2022-10-31T12:12:06;96478.31;;;18.46
6498;BMP280;3282;48.358;10.958;2022-10-31T12:17:26;96482.88;;;18.80
6498;BMP280;3282;48.358;10.958;2022-10-31T12:23:03;96473.75;;;18.94
6498;BMP280;3282;48.358;10.958;2022-10-31T12:25:59;96466.75;;;18.97
6498;BMP280;3282;48.358;10.958;2022-10-31T12:28:41;96447.97;;;19.10
6498;BMP280;3282;48.358;10.958;2022-10-31T12:39:34;96440.72;;;20.08
6498;BMP280;3282;48.358;10.958;2022-10-31T12:42:28;96438.13;;;20.21
6498;BMP280;3282;48.358;10.958;2022-10-31T12:52:56;96422.97;;;20.40
6498;BMP280;3282;48.358;10.958;2022-10-31T12:55:40;96427.94;;;20.25
6498;BMP280;3282;48.358;10.958;2022-10-31T13:00:43;96416.69;;;20.07
6498;BMP280;3282;48.358;10.958;2022-10-31T13:05:41;96384.16;;;19.66
6498;BMP280;3282;48.358;10.958;2022-10-31T13:08:12;96361.41;;;19.40
6498;BMP280;3282;48.358;10.958;2022-10-31T13:10:44;96409.75;;;19.65
6498;BMP280;3282;48.358;10.958;2022-10-31T13:13:19;96406.97;;;19.48
6498;BMP280;3282;48.358;10.958;2022-10-31T13:15:50;96411.06;;;19.36
6498;BMP280;3282;48.358;10.958;2022-10-31T13:18:27;96400.47;;;19.22
6498;BMP280;3282;48.358;10.958;2022-10-31T13:20:55;96397.88;;;19.15
6498;BMP280;3282;48.358;10.958;2022-10-31T13:23:32;96400.25;;;19.13
6498;BMP280;3282;48.358;10.958;2022-10-31T13:26:32;96396.88;;;19.05
6498;BMP280;3282;48.358;10.958;2022-10-31T13:29:22;96393.56;;;18.97
6498;BMP280;3282;48.358;10.958;2022-10-31T13:31:55;96396.69;;;18.95
6498;BMP280;3282;48.358;10.958;2022-10-31T13:34:40;96377.84;;;18.88
6498;BMP280;3282;48.358;10.958;2022-10-31T13:40:36;96387.47;;;18.89
6498;BMP280;3282;48.358;10.958;2022-10-31T13:43:17;96380.84;;;18.90
6498;BMP280;3282;48.358;10.958;2022-10-31T13:45:53;96343.31;;;18.65
6498;BMP280;3282;48.358;10.958;2022-10-31T13:48:33;96382.41;;;18.91
6498;BMP280;3282;48.358;10.958;2022-10-31T13:51:03;96377.06;;;18.88
6498;BMP280;3282;48.358;10.958;2022-10-31T13:53:56;96364.81;;;18.76
6498;BMP280;3282;48.358;10.958;2022-10-31T13:56:32;96376.69;;;18.86
6498;BMP280;3282;48.358;10.958;2022-10-31T14:01:33;96360.34;;;18.89
6498;BMP280;3282;48.358;10.958;2022-10-31T14:04:06;96356.38;;;18.74
6498;BMP280;3282;48.358;10.958;2022-10-31T14:09:28;96353.47;;;18.61
6498;BMP280;3282;48.358;10.958;2022-10-31T14:11:57;96352.19;;;18.41
6498;BMP280;3282;48.358;10.958;2022-10-31T14:14:30;96362.22;;;18.44
6498;BMP280;3282;48.358;10.958;2022-10-31T14:16:58;96370.13;;;18.35
6498;BMP280;3282;48.358;10.958;2022-10-31T14:19:25;96356.31;;;18.26
6498;BMP280;3282;48.358;10.958;2022-10-31T14:21:52;96365.63;;;18.25
6498;BMP280;3282;48.358;10.958;2022-10-31T14:26:58;96353.03;;;18.11
6498;BMP280;3282;48.358;10.958;2022-10-31T14:29:33;96353.47;;;18.05
6498;BMP280;3282;48.358;10.958;2022-10-31T14:32:22;96342.06;;;17.90
6498;BMP280;3282;48.358;10.958;2022-10-31T14:34:54;96342.06;;;17.90
6498;BMP280;3282;48.358;10.958;2022-10-31T14:37:52;96341.34;;;17.86
6498;BMP280;3282;48.358;10.958;2022-10-31T14:40:35;96336.84;;;17.76
6498;BMP280;3282;48.358;10.958;2022-10-31T14:43:31;96332.66;;;17.71
6498;BMP280;3282;48.358;10.958;2022-10-31T14:46:38;96326.25;;;17.58
6498;BMP280;3282;48.358;10.958;2022-10-31T14:51:58;96339.38;;;17.59
6498;BMP280;3282;48.358;10.958;2022-10-31T14:54:30;96331.69;;;17.54
6498;BMP280;3282;48.358;10.958;2022-10-31T14:57:15;96327.47;;;17.53
6498;BMP280;3282;48.358;10.958;2022-10-31T14:59:47;96329.53;;;17.42
6498;BMP280;3282;48.358;10.958;2022-10-31T15:02:23;96328.94;;;17.23
6498;BMP280;3282;48.358;10.958;2022-10-31T15:04:51;96323.66;;;17.12
6498;BMP280;3282;48.358;10.958;2022-10-31T15:07:23;96325.59;;;17.11
6498;BMP280;3282;48.358;10.958;2022-10-31T15:10:19;96318.41;;;16.94
6498;BMP280;3282;48.358;10.958;2022-10-31T15:12:46;96327.66;;;16.96
6498;BMP280;3282;48.358;10.958;2022-10-31T15:15:21;96316.94;;;16.89
6498;BMP280;3282;48.358;10.958;2022-10-31T15:17:58;96324.22;;;16.92
6498;BMP280;3282;48.358;10.958;2022-10-31T15:20:28;96325.34;;;16.98
6498;BMP280;3282;48.358;10.958;2022-10-31T15:22:57;96320.28;;;16.97
6498;BMP280;3282;48.358;10.958;2022-10-31T15:25:26;96316.09;;;16.96
6498;BMP280;3282;48.358;10.958;2022-10-31T15:27:53;96283.53;;;16.68
6498;BMP280;3282;48.358;10.958;2022-10-31T15:32:47;96315.84;;;16.79
6498;BMP280;3282;48.358;10.958;2022-10-31T15:35:26;96297.84;;;16.61
6498;BMP280;3282;48.358;10.958;2022-10-31T15:37:53;96320.97;;;16.66
6498;BMP280;3282;48.358;10.958;2022-10-31T15:40:23;96311.75;;;16.60
6498;BMP280;3282;48.358;10.958;2022-10-31T15:42:59;96311.84;;;16.53
6498;BMP280;3282;48.358;10.958;2022-10-31T15:45:28;96281.56;;;16.23
6498;BMP280;3282;48.358;10.958;2022-10-31T15:47:58;96306.56;;;16.34
6498;BMP280;3282;48.358;10.958;2022-10-31T15:50:39;96308.91;;;16.29
6498;BMP280;3282;48.358;10.958;2022-10-31T15:53:17;96315.47;;;16.20
6498;BMP280;3282;48.358;10.958;2022-10-31T15:55:50;96309.81;;;16.07
6498;BMP280;3282;48.358;10.958;2022-10-31T15:58:17;96292.50;;;15.94
6498;BMP280;3282;48.358;10.958;2022-10-31T16:00:45;96270.66;;;15.70
6498;BMP280;3282;48.358;10.958;2022-10-31T16:03:28;96310.25;;;15.88
6498;BMP280;3282;48.358;10.958;2022-10-31T16:06:00;96293.44;;;15.65
6498;BMP280;3282;48.358;10.958;2022-10-31T16:13:51;96304.63;;;15.53
6498;BMP280;3282;48.358;10.958;2022-10-31T16:16:19;96304.66;;;15.49
6498;BMP280;3282;48.358;10.958;2022-10-31T16:19:02;96302.34;;;15.44
6498;BMP280;3282;48.358;10.958;2022-10-31T16:21:35;96293.91;;;15.38
6498;BMP280;3282;48.358;10.958;2022-10-31T16:24:30;96306.63;;;15.30
6498;BMP280;3282;48.358;10.958;2022-10-31T16:27:03;96306.66;;;15.23
6498;BMP280;3282;48.358;10.958;2022-10-31T16:29:42;96299.72;;;15.04
6498;BMP280;3282;48.358;10.958;2022-10-31T16:32:26;96295.91;;;14.98